createdAt,value
2023-03-11T00:02:19.301Z,0.65
2023-03-11T00:04:45.700Z,0.73
2023-03-11T00:07:12.097Z,0.54
2023-03-11T00:09:38.493Z,0.63
2023-03-11T00:12:05.378Z,0.56
2023-03-11T00:14:31.809Z,0.64
2023-03-11T00:16:58.802Z,0.66
2023-03-11T00:19:25.201Z,0.70
2023-03-11T00:21:51.758Z,0.72
2023-03-11T00:24:18.126Z,0.81
2023-03-11T00:26:44.538Z,0.75
2023-03-11T00:29:10.917Z,0.67
2023-03-11T00:31:37.299Z,0.71
2023-03-11T00:34:03.795Z,0.65
2023-03-11T00:36:31.920Z,0.87
2023-03-11T00:38:58.820Z,0.76
2023-03-11T00:41:25.378Z,0.76
2023-03-11T00:43:51.791Z,0.61
2023-03-11T00:46:18.423Z,0.62
2023-03-11T00:48:44.862Z,0.75
2023-03-11T00:51:15.318Z,0.63
2023-03-11T00:53:42.388Z,0.54
2023-03-11T00:56:10.254Z,0.54
2023-03-11T00:58:37.010Z,0.63
2023-03-11T01:01:11.781Z,0.57
2023-03-11T01:03:38.991Z,0.48
2023-03-11T01:06:05.769Z,0.60
2023-03-11T01:08:32.579Z,0.64
2023-03-11T01:10:59.570Z,0.56
2023-03-11T01:13:27.336Z,0.49
2023-03-11T01:15:53.929Z,0.38
2023-03-11T01:18:20.772Z,0.40
2023-03-11T01:20:48.045Z,0.45
2023-03-11T01:23:15.190Z,0.53
2023-03-11T01:25:41.549Z,0.66
2023-03-11T01:28:08.507Z,0.77
2023-03-11T01:30:37.007Z,0.55
2023-03-11T01:33:04.387Z,0.71
2023-03-11T01:35:31.873Z,0.59
2023-03-11T01:37:58.683Z,0.58
2023-03-11T01:40:33.783Z,0.64
2023-03-11T01:43:01.004Z,0.56
2023-03-11T01:45:39.552Z,0.61
2023-03-11T01:48:07.036Z,0.64
2023-03-11T01:50:40.404Z,0.76
2023-03-11T01:53:07.217Z,0.66
2023-03-11T01:55:33.941Z,0.73
2023-03-11T01:58:03.265Z,0.59
2023-03-11T02:00:29.630Z,0.75
2023-03-11T02:02:58.466Z,0.70
2023-03-11T02:05:25.081Z,0.63
2023-03-11T02:07:52.874Z,0.74
2023-03-11T02:10:19.742Z,0.58
2023-03-11T02:12:47.045Z,0.67
2023-03-11T02:15:13.696Z,0.31
2023-03-11T02:17:41.062Z,0.45
2023-03-11T02:20:16.526Z,0.64
2023-03-11T02:22:43.635Z,0.61
2023-03-11T02:25:34.669Z,0.55
2023-03-11T02:28:03.098Z,0.48
2023-03-11T02:30:29.479Z,0.72
2023-03-11T02:32:56.095Z,0.62
2023-03-11T02:35:22.672Z,0.42
2023-03-11T02:37:51.533Z,0.35
2023-03-11T02:40:23.859Z,0.51
2023-03-11T02:42:52.070Z,0.53
2023-03-11T02:45:19.674Z,0.63
2023-03-11T02:47:46.418Z,0.51
2023-03-11T02:50:15.921Z,0.37
2023-03-11T02:52:42.582Z,0.57
2023-03-11T02:55:11.805Z,0.52
2023-03-11T02:57:38.503Z,0.47
2023-03-11T03:00:11.144Z,0.20
2023-03-11T03:02:37.708Z,0.28
2023-03-11T03:05:04.223Z,0.42
2023-03-11T03:07:30.580Z,0.36
2023-03-11T03:09:56.942Z,0.50
2023-03-11T03:12:23.435Z,0.24
2023-03-11T03:14:49.808Z,0.42
2023-03-11T03:17:16.245Z,0.58
2023-03-11T03:19:42.685Z,0.23
2023-03-11T03:22:09.165Z,0.36
2023-03-11T03:24:35.629Z,0.61
2023-03-11T03:27:02.017Z,0.55
2023-03-11T03:29:28.648Z,0.20
2023-03-11T03:31:55.093Z,0.30
2023-03-11T03:34:21.510Z,0.25
2023-03-11T03:36:47.896Z,0.26
2023-03-11T03:39:14.271Z,0.35
2023-03-11T03:41:40.651Z,0.62
2023-03-11T03:44:07.021Z,0.54
2023-03-11T03:46:33.448Z,0.50
2023-03-11T03:48:59.819Z,0.43
2023-03-11T03:51:26.199Z,0.44
2023-03-11T03:53:52.550Z,0.52
2023-03-11T03:56:19.523Z,0.66
2023-03-11T03:58:45.922Z,0.55
2023-03-11T04:01:12.928Z,0.60
2023-03-11T04:03:39.729Z,0.40
2023-03-11T04:06:08.327Z,0.45
2023-03-11T04:08:34.702Z,0.08
2023-03-11T04:11:01.083Z,0.29
2023-03-11T04:13:27.490Z,0.15
2023-03-11T04:15:53.868Z,0.63
2023-03-11T04:18:20.368Z,0.45
2023-03-11T04:20:46.725Z,0.51
2023-03-11T04:23:13.119Z,0.29
2023-03-11T04:25:39.499Z,0.45
2023-03-11T04:28:05.889Z,0.44
2023-03-11T04:30:32.356Z,0.22
2023-03-11T04:32:58.800Z,0.49
2023-03-11T04:35:25.277Z,0.22
2023-03-11T04:37:51.675Z,0.33
2023-03-11T04:40:18.165Z,0.26
2023-03-11T04:42:44.547Z,0.42
2023-03-11T04:45:11.206Z,0.48
2023-03-11T04:47:37.603Z,0.34
2023-03-11T04:50:04.353Z,0.14
2023-03-11T04:52:30.747Z,0.46
2023-03-11T04:54:57.108Z,0.54
2023-03-11T04:57:23.496Z,0.48
2023-03-11T04:59:49.873Z,0.57
2023-03-11T05:02:16.322Z,0.31
2023-03-11T05:04:42.715Z,0.20
2023-03-11T05:07:09.144Z,0.27
2023-03-11T05:09:35.582Z,0.13
2023-03-11T05:12:01.955Z,0.14
2023-03-11T05:14:28.334Z,0.23
2023-03-11T05:16:55.030Z,0.20
2023-03-11T05:19:34.844Z,0.31
2023-03-11T05:22:02.649Z,0.35
2023-03-11T05:24:29.489Z,0.50
2023-03-11T05:26:56.380Z,0.52
2023-03-11T05:29:23.018Z,0.51
2023-03-11T05:31:49.746Z,0.36
2023-03-11T05:34:16.151Z,0.26
2023-03-11T05:36:42.751Z,0.15
2023-03-11T05:39:09.164Z,0.10
2023-03-11T05:41:35.787Z,0.56
2023-03-11T05:44:02.668Z,0.38
2023-03-11T05:46:29.199Z,0.55
2023-03-11T05:48:55.824Z,0.36
2023-03-11T05:51:22.209Z,0.28
2023-03-11T05:53:49.217Z,0.27
2023-03-11T05:56:16.990Z,0.26
2023-03-11T05:58:43.505Z,0.23
2023-03-11T06:01:17.310Z,0.17
2023-03-11T06:03:43.958Z,0.28
2023-03-11T06:06:12.257Z,0.06
2023-03-11T06:08:38.809Z,0.10
2023-03-11T06:11:07.493Z,0.08
2023-03-11T06:13:33.889Z,-0.09
2023-03-11T06:16:00.373Z,0.18
2023-03-11T06:18:27.281Z,0.08
2023-03-11T06:20:54.770Z,0.01
2023-03-11T06:23:21.143Z,0.27
2023-03-11T06:26:01.779Z,0.11
2023-03-11T06:28:28.602Z,-0.13
2023-03-11T06:30:56.670Z,0.21
2023-03-11T06:33:23.971Z,0.34
2023-03-11T06:35:58.395Z,0.02
2023-03-11T06:38:25.005Z,-0.09
2023-03-11T06:40:51.535Z,-0.16
2023-03-11T06:43:17.974Z,-0.29
2023-03-11T06:45:44.604Z,-0.21
2023-03-11T06:48:10.993Z,-0.14
2023-03-11T06:50:37.526Z,0.16
2023-03-11T06:53:06.534Z,0.09
2023-03-11T06:55:33.785Z,-0.18
2023-03-11T06:58:00.194Z,-0.22
2023-03-11T07:00:26.608Z,-0.09
2023-03-11T07:02:53.038Z,0.33
2023-03-11T07:05:19.641Z,0.16
2023-03-11T07:07:46.029Z,0.29
2023-03-11T07:10:12.484Z,0.17
2023-03-11T07:12:38.894Z,0.52
2023-03-11T07:15:05.754Z,0.35
2023-03-11T07:17:32.296Z,0.47
2023-03-11T07:19:58.768Z,0.66
2023-03-11T07:22:25.193Z,0.72
2023-03-11T07:24:51.616Z,0.62
2023-03-11T07:27:18.074Z,0.76
2023-03-11T07:29:44.652Z,0.72
2023-03-11T07:32:11.022Z,0.51
2023-03-11T07:34:37.440Z,0.67
2023-03-11T07:37:04.225Z,0.85
2023-03-11T07:39:30.706Z,0.70
2023-03-11T07:41:57.069Z,0.79
2023-03-11T07:44:23.457Z,1.03
2023-03-11T07:46:49.833Z,1.11
2023-03-11T07:49:16.606Z,1.03
2023-03-11T07:51:43.803Z,1.14
2023-03-11T07:54:11.332Z,0.93
2023-03-11T07:56:38.244Z,1.39
2023-03-11T07:59:05.045Z,1.23
2023-03-11T08:01:36.431Z,1.03
2023-03-11T08:04:04.901Z,1.32
2023-03-11T08:06:32.587Z,1.06
2023-03-11T08:09:00.303Z,1.42
2023-03-11T08:11:27.124Z,1.32
2023-03-11T08:13:53.834Z,1.33
2023-03-11T08:16:22.002Z,1.59
2023-03-11T08:18:49.801Z,1.61
2023-03-11T08:21:18.979Z,1.84
2023-03-11T08:23:48.279Z,1.97
2023-03-11T08:26:21.521Z,1.85
2023-03-11T08:28:48.989Z,2.07
2023-03-11T08:31:20.005Z,2.07
2023-03-11T08:33:49.835Z,2.13
2023-03-11T08:36:16.949Z,2.36
2023-03-11T08:38:43.473Z,2.34
2023-03-11T08:41:09.872Z,2.24
2023-03-11T08:43:36.242Z,2.39
2023-03-11T08:46:04.454Z,2.30
2023-03-11T08:48:30.953Z,2.50
2023-03-11T08:50:57.556Z,2.44
2023-03-11T08:53:23.996Z,2.67
2023-03-11T08:55:51.666Z,2.67
2023-03-11T08:58:18.900Z,2.90
2023-03-11T09:00:46.118Z,3.03
2023-03-11T09:03:13.408Z,2.90
2023-03-11T09:05:40.046Z,2.96
2023-03-11T09:08:06.456Z,3.00
2023-03-11T09:10:32.893Z,2.96
2023-03-11T09:12:59.280Z,2.95
2023-03-11T09:15:25.704Z,2.97
2023-03-11T09:17:52.910Z,3.19
2023-03-11T09:20:19.622Z,3.20
2023-03-11T09:22:46.011Z,3.12
2023-03-11T09:25:12.942Z,2.94
2023-03-11T09:27:39.424Z,2.91
2023-03-11T09:30:06.238Z,3.24
2023-03-11T09:32:32.605Z,3.40
2023-03-11T09:35:00.116Z,2.80
2023-03-11T09:37:26.912Z,2.85
2023-03-11T09:39:53.292Z,2.93
2023-03-11T09:42:25.498Z,3.05
2023-03-11T09:44:54.715Z,3.30
2023-03-11T09:47:28.708Z,3.41
2023-03-11T09:50:15.085Z,3.64
2023-03-11T09:52:47.540Z,3.52
2023-03-11T09:55:47.340Z,3.42
2023-03-11T09:58:34.731Z,4.04
2023-03-11T10:01:01.681Z,3.77
2023-03-11T10:03:34.719Z,3.73
2023-03-11T10:06:16.066Z,3.92
2023-03-11T10:08:56.738Z,4.21
2023-03-11T10:11:32.511Z,4.36
2023-03-11T10:14:07.901Z,4.06
2023-03-11T10:16:39.659Z,4.17
2023-03-11T10:19:15.241Z,4.74
2023-03-11T10:21:49.379Z,4.47
2023-03-11T10:24:40.851Z,5.06
2023-03-11T10:27:14.707Z,4.94
2023-03-11T10:29:50.150Z,4.69
2023-03-11T10:32:31.867Z,4.71
2023-03-11T10:35:15.646Z,5.03
2023-03-11T10:37:50.320Z,5.22
2023-03-11T10:40:37.165Z,4.78
2023-03-11T10:43:07.078Z,4.66
2023-03-11T10:45:37.894Z,5.08
2023-03-11T10:48:10.164Z,5.56
2023-03-11T10:50:36.993Z,6.52
2023-03-11T10:53:09.469Z,5.23
2023-03-11T10:55:36.354Z,5.86
2023-03-11T10:58:07.736Z,5.69
2023-03-11T11:00:34.304Z,4.99
2023-03-11T11:03:01.998Z,4.91
2023-03-11T11:05:35.639Z,4.81
2023-03-11T11:08:22.263Z,4.49
2023-03-11T11:10:55.097Z,5.43
2023-03-11T11:13:23.498Z,5.94
2023-03-11T11:16:05.283Z,6.17
2023-03-11T11:18:35.495Z,6.47
2023-03-11T11:21:07.522Z,6.65
2023-03-11T11:23:43.369Z,6.33
2023-03-11T11:26:18.883Z,6.46
2023-03-11T11:28:45.374Z,6.81
2023-03-11T11:31:26.035Z,6.29
2023-03-11T11:33:54.511Z,5.22
2023-03-11T11:36:26.670Z,5.57
2023-03-11T11:38:54.484Z,4.92
2023-03-11T11:41:26.348Z,5.17
2023-03-11T11:43:55.754Z,5.27
2023-03-11T11:46:32.584Z,5.56
2023-03-11T11:49:18.608Z,5.16
2023-03-11T11:51:50.436Z,5.37
2023-03-11T11:54:24.161Z,6.05
2023-03-11T11:56:50.589Z,6.42
2023-03-11T11:59:18.981Z,5.93
2023-03-11T12:01:54.299Z,6.44
2023-03-11T12:04:53.686Z,6.63
2023-03-11T12:07:39.295Z,6.66
2023-03-11T12:10:23.196Z,6.30
2023-03-11T12:13:14.626Z,6.43
2023-03-11T12:15:49.889Z,6.41
2023-03-11T12:18:39.566Z,6.61
2023-03-11T12:21:23.666Z,6.24
2023-03-11T12:23:59.266Z,6.14
2023-03-11T12:26:27.455Z,6.86
2023-03-11T12:29:26.721Z,7.74
2023-03-11T12:31:53.874Z,7.70
2023-03-11T12:34:21.032Z,7.34
2023-03-11T12:36:48.319Z,7.76
2023-03-11T12:39:34.101Z,7.25
2023-03-11T12:42:19.430Z,7.07
2023-03-11T12:44:46.270Z,7.33
2023-03-11T12:47:28.705Z,6.41
2023-03-11T12:49:57.286Z,6.21
2023-03-11T12:52:27.962Z,6.08
2023-03-11T12:55:01.012Z,6.03
2023-03-11T12:57:55.071Z,5.99
2023-03-11T13:00:40.754Z,5.75
2023-03-11T13:03:29.527Z,6.05
2023-03-11T13:06:23.918Z,5.76
2023-03-11T13:08:50.834Z,5.77
2023-03-11T13:11:26.224Z,5.97
2023-03-11T13:13:52.726Z,6.28
2023-03-11T13:16:19.213Z,6.44
2023-03-11T13:18:47.595Z,6.53
2023-03-11T13:21:32.319Z,6.03
2023-03-11T13:24:25.863Z,5.49
2023-03-11T13:26:56.946Z,5.62
2023-03-11T13:29:35.188Z,6.17
2023-03-11T13:32:11.413Z,6.08
2023-03-11T13:35:05.541Z,5.89
2023-03-11T13:37:45.207Z,5.50
2023-03-11T13:40:29.544Z,5.97
2023-03-11T13:42:58.146Z,8.50
2023-03-11T13:45:30.595Z,11.18
2023-03-11T13:48:00.049Z,12.42
2023-03-11T13:50:38.533Z,13.16
2023-03-11T13:53:11.321Z,13.52
2023-03-11T13:55:45.151Z,15.20
2023-03-11T13:58:23.433Z,14.91
2023-03-11T14:00:54.200Z,14.89
2023-03-11T14:03:22.891Z,14.85
2023-03-11T14:06:02.024Z,14.88
2023-03-11T14:08:31.650Z,14.59
2023-03-11T14:11:13.150Z,14.06
2023-03-11T14:13:44.776Z,13.43
2023-03-11T14:16:22.292Z,11.31
2023-03-11T14:19:02.096Z,14.67
2023-03-11T14:21:28.518Z,12.95
2023-03-11T14:23:55.400Z,12.93
2023-03-11T14:26:29.047Z,12.49
2023-03-11T14:28:58.812Z,11.44
2023-03-11T14:31:30.027Z,13.20
2023-03-11T14:34:03.950Z,12.96
2023-03-11T14:36:32.749Z,11.46
2023-03-11T14:38:59.136Z,13.98
2023-03-11T14:41:25.566Z,14.11
2023-03-11T14:43:53.216Z,13.35
2023-03-11T14:46:27.105Z,15.17
2023-03-11T14:48:54.847Z,15.62
2023-03-11T14:51:25.406Z,15.19
2023-03-11T14:54:02.722Z,15.86
2023-03-11T14:56:29.480Z,16.07
2023-03-11T14:59:08.059Z,13.33
2023-03-11T15:01:40.831Z,12.76
2023-03-11T15:04:14.600Z,12.00
2023-03-11T15:06:43.704Z,10.81
2023-03-11T15:09:13.742Z,9.99
2023-03-11T15:11:49.179Z,10.19
2023-03-11T15:14:25.237Z,10.23
2023-03-11T15:16:53.056Z,9.89
2023-03-11T15:19:25.643Z,9.76
2023-03-11T15:21:54.517Z,9.33
2023-03-11T15:24:32.348Z,8.84
2023-03-11T15:26:58.664Z,7.36
2023-03-11T15:29:26.578Z,7.82
2023-03-11T15:31:53.058Z,7.84
2023-03-11T15:34:19.367Z,7.60
2023-03-11T15:36:48.863Z,7.43
2023-03-11T15:39:17.621Z,7.26
2023-03-11T15:41:46.505Z,7.20
2023-03-11T15:44:33.626Z,7.59
2023-03-11T15:47:00.789Z,7.94
2023-03-11T15:49:28.398Z,7.57
2023-03-11T15:52:01.500Z,7.29
2023-03-11T15:54:28.657Z,7.65
2023-03-11T15:56:56.532Z,7.82
2023-03-11T15:59:22.975Z,7.15
2023-03-11T16:01:49.636Z,7.39
2023-03-11T16:04:17.994Z,7.02
2023-03-11T16:06:45.056Z,7.64
2023-03-11T16:09:12.123Z,8.08
2023-03-11T16:11:39.390Z,7.70
2023-03-11T16:14:06.967Z,7.78
2023-03-11T16:16:33.491Z,7.53
2023-03-11T16:18:59.874Z,6.59
2023-03-11T16:21:32.426Z,7.02
2023-03-11T16:23:58.810Z,7.19
2023-03-11T16:26:25.190Z,6.80
2023-03-11T16:28:51.585Z,7.02
2023-03-11T16:31:18.045Z,6.76
2023-03-11T16:33:44.466Z,6.81
2023-03-11T16:36:10.984Z,6.74
2023-03-11T16:38:46.182Z,6.25
2023-03-11T16:41:12.615Z,6.39
2023-03-11T16:43:38.998Z,6.75
2023-03-11T16:46:05.572Z,6.65
2023-03-11T16:48:32.048Z,6.85
2023-03-11T16:50:58.407Z,6.86
2023-03-11T16:53:26.140Z,6.66
2023-03-11T16:55:53.049Z,6.13
2023-03-11T16:58:19.850Z,5.95
2023-03-11T17:00:46.437Z,6.20
2023-03-11T17:03:21.345Z,6.13
2023-03-11T17:05:48.112Z,5.79
2023-03-11T17:08:16.246Z,6.17
2023-03-11T17:10:45.128Z,6.46
2023-03-11T17:13:13.410Z,6.00
2023-03-11T17:15:42.224Z,6.10
2023-03-11T17:18:08.620Z,5.96
2023-03-11T17:20:36.317Z,5.84
2023-03-11T17:23:02.752Z,5.28
2023-03-11T17:25:29.118Z,5.14
2023-03-11T17:27:55.492Z,5.02
2023-03-11T17:30:35.943Z,4.85
2023-03-11T17:33:03.172Z,4.86
2023-03-11T17:35:29.574Z,4.73
2023-03-11T17:37:55.942Z,4.86
2023-03-11T17:40:22.327Z,4.79
2023-03-11T17:42:48.691Z,4.86
2023-03-11T17:45:15.070Z,4.69
2023-03-11T17:47:41.422Z,4.36
2023-03-11T17:50:08.513Z,4.20
2023-03-11T17:52:34.908Z,4.27
2023-03-11T17:55:01.320Z,4.23
2023-03-11T17:57:27.691Z,4.13
2023-03-11T17:59:54.188Z,3.92
2023-03-11T18:02:21.082Z,3.79
2023-03-11T18:04:53.579Z,3.66
2023-03-11T18:07:22.922Z,3.65
2023-03-11T18:09:53.498Z,3.58
2023-03-11T18:12:20.725Z,3.48
2023-03-11T18:14:47.266Z,3.29
2023-03-11T18:17:13.633Z,3.47
2023-03-11T18:19:40.014Z,3.21
2023-03-11T18:22:06.393Z,3.15
2023-03-11T18:24:32.761Z,3.10
2023-03-11T18:26:59.142Z,2.96
2023-03-11T18:29:25.558Z,3.09
2023-03-11T18:31:51.993Z,3.10
2023-03-11T18:34:18.471Z,3.05
2023-03-11T18:36:44.879Z,3.05
2023-03-11T18:39:12.541Z,3.16
2023-03-11T18:41:39.204Z,3.05
2023-03-11T18:44:05.604Z,3.04
2023-03-11T18:46:32.326Z,3.13
2023-03-11T18:48:59.882Z,3.02
2023-03-11T18:51:28.137Z,2.92
2023-03-11T18:53:54.577Z,3.05
2023-03-11T18:56:23.595Z,3.08
2023-03-11T18:58:49.961Z,3.09
2023-03-11T19:01:18.564Z,2.85
2023-03-11T19:03:49.574Z,2.62
2023-03-11T19:06:16.566Z,2.63
2023-03-11T19:08:43.503Z,2.59
2023-03-11T19:11:12.391Z,2.58
2023-03-11T19:13:46.547Z,2.52
2023-03-11T19:16:14.608Z,2.37
2023-03-11T19:18:41.134Z,2.11
2023-03-11T19:21:08.227Z,2.31
2023-03-11T19:23:34.910Z,2.21
2023-03-11T19:26:03.263Z,2.13
2023-03-11T19:28:30.096Z,2.10
2023-03-11T19:30:58.212Z,2.05
2023-03-11T19:33:25.189Z,2.14
2023-03-11T19:35:53.547Z,2.19
2023-03-11T19:38:20.689Z,1.89
2023-03-11T19:40:54.308Z,2.04
2023-03-11T19:43:21.504Z,2.10
2023-03-11T19:45:49.534Z,2.08
2023-03-11T19:48:16.463Z,1.89
2023-03-11T19:50:44.376Z,1.90
2023-03-11T19:53:10.765Z,1.80
2023-03-11T19:55:37.202Z,1.93
2023-03-11T19:58:03.592Z,1.90
2023-03-11T20:00:30.511Z,1.77
2023-03-11T20:02:57.311Z,1.71
2023-03-11T20:05:23.753Z,1.63
2023-03-11T20:07:50.135Z,1.63
2023-03-11T20:10:17.700Z,1.65
2023-03-11T20:12:59.710Z,1.66
2023-03-11T20:15:28.502Z,1.63
2023-03-11T20:17:54.931Z,1.71
2023-03-11T20:20:21.776Z,1.81
2023-03-11T20:22:48.367Z,1.69
2023-03-11T20:25:16.015Z,1.79
2023-03-11T20:27:42.671Z,1.88
2023-03-11T20:30:09.968Z,1.85
2023-03-11T20:32:36.408Z,1.84
2023-03-11T20:35:04.043Z,1.94
2023-03-11T20:37:30.749Z,2.00
2023-03-11T20:39:57.202Z,1.98
2023-03-11T20:42:23.655Z,1.92
2023-03-11T20:44:53.758Z,2.07
2023-03-11T20:47:20.716Z,2.17
2023-03-11T20:49:47.189Z,2.10
2023-03-11T20:52:13.673Z,2.09
2023-03-11T20:54:40.354Z,2.00
2023-03-11T20:57:07.631Z,1.97
2023-03-11T20:59:34.234Z,2.03
2023-03-11T21:02:00.910Z,1.99
2023-03-11T21:04:27.457Z,2.00
2023-03-11T21:06:55.305Z,1.91
2023-03-11T21:09:21.794Z,1.96
2023-03-11T21:11:48.230Z,1.89
2023-03-11T21:14:18.342Z,1.90
2023-03-11T21:16:45.626Z,1.92
2023-03-11T21:19:13.339Z,1.88
2023-03-11T21:21:40.098Z,1.70
2023-03-11T21:24:06.950Z,1.50
2023-03-11T21:26:34.557Z,1.50
2023-03-11T21:29:01.144Z,1.57
2023-03-11T21:31:29.473Z,1.66
2023-03-11T21:33:57.894Z,1.56
2023-03-11T21:36:25.620Z,1.27
2023-03-11T21:38:52.109Z,1.20
2023-03-11T21:41:24.843Z,1.17
2023-03-11T21:43:52.405Z,1.14
2023-03-11T21:46:21.173Z,1.10
2023-03-11T21:48:48.242Z,1.08
2023-03-11T21:51:15.992Z,1.07
2023-03-11T21:53:42.867Z,0.99
2023-03-11T21:56:09.978Z,0.92
2023-03-11T21:58:36.890Z,0.80
2023-03-11T22:01:03.469Z,0.73
2023-03-11T22:03:30.771Z,0.86
2023-03-11T22:05:58.855Z,0.65
2023-03-11T22:08:27.049Z,0.73
2023-03-11T22:10:53.618Z,0.67
2023-03-11T22:13:20.070Z,0.57
2023-03-11T22:15:46.904Z,0.61
2023-03-11T22:18:13.463Z,0.69
2023-03-11T22:20:40.755Z,0.60
2023-03-11T22:23:07.487Z,0.57
2023-03-11T22:25:33.893Z,0.67
2023-03-11T22:28:00.330Z,0.81
2023-03-11T22:30:27.458Z,0.91
2023-03-11T22:32:53.920Z,1.00
2023-03-11T22:35:20.343Z,0.93
2023-03-11T22:37:46.820Z,0.82
2023-03-11T22:40:13.322Z,0.84
2023-03-11T22:42:39.781Z,0.94
2023-03-11T22:45:07.008Z,0.98
2023-03-11T22:47:33.693Z,1.17
2023-03-11T22:50:00.092Z,1.28
2023-03-11T22:52:26.560Z,1.25
2023-03-11T22:54:53.075Z,1.28
2023-03-11T22:57:19.515Z,1.22
2023-03-11T22:59:45.876Z,1.28
2023-03-11T23:02:12.276Z,1.40
2023-03-11T23:04:38.640Z,1.23
2023-03-11T23:07:05.057Z,1.10
2023-03-11T23:09:31.430Z,1.14
2023-03-11T23:11:57.835Z,1.25
2023-03-11T23:14:37.813Z,1.25
2023-03-11T23:17:10.419Z,1.29
2023-03-11T23:19:36.816Z,1.09
2023-03-11T23:22:03.247Z,1.14
2023-03-11T23:24:29.620Z,0.90
2023-03-11T23:26:56.000Z,0.99
2023-03-11T23:29:22.414Z,1.01
2023-03-11T23:31:48.768Z,1.14
2023-03-11T23:34:15.129Z,1.29
2023-03-11T23:36:41.515Z,1.23
2023-03-11T23:39:07.909Z,1.28
2023-03-11T23:41:35.757Z,1.41
2023-03-11T23:44:02.136Z,1.45
2023-03-11T23:46:28.573Z,1.38
2023-03-11T23:48:54.961Z,1.36
2023-03-11T23:51:21.344Z,1.31
2023-03-11T23:53:47.712Z,1.40
2023-03-11T23:56:17.004Z,1.46
2023-03-11T23:58:43.636Z,1.37
